Time;durP1;ratioP1;P1;durP2;ratioP2;P2;SDS_P1;SDS_P2;PMS_P1;PMS_P2;Temp;Humidity;BMP_temperature;BMP_pressure;BME280_temperature;BME280_humidity;BME280_pressure;Samples;Min_cycle;Max_cycle;Signal;HPM_P1;HPM_P2
2023/04/14 00:00:08;;;;;;;3.97;1.58;;;;;;;15.06;100.00;95399.78;4964869;28;20093;-44
2023/04/14 00:02:37;;;;;;;6.10;2.38;;;;;;;15.11;100.00;95400.03;4966540;28;20594;-46
2023/04/14 00:05:07;;;;;;;4.82;2.00;;;;;;;15.22;100.00;95398.63;4964358;28;20079;-46
2023/04/14 00:07:35;;;;;;;7.03;1.93;;;;;;;15.06;100.00;95397.13;4965259;28;20085;-44
2023/04/14 00:10:04;;;;;;;4.03;1.70;;;;;;;15.10;100.00;95395.72;4965079;28;20506;-49
2023/04/14 00:12:33;;;;;;;2.70;1.90;;;;;;;14.71;100.00;95392.69;4965780;28;20086;-45
2023/04/14 00:15:02;;;;;;;3.75;2.38;;;;;;;14.91;100.00;95403.41;4966706;28;20545;-47
2023/04/14 00:17:31;;;;;;;3.90;2.50;;;;;;;15.32;100.00;95402.53;4963648;28;20090;-46
2023/04/14 00:19:59;;;;;;;6.68;2.72;;;;;;;14.68;100.00;95397.56;4968115;28;20090;-47
2023/04/14 00:22:27;;;;;;;4.32;2.72;;;;;;;14.62;100.00;95403.66;4966616;28;20089;-44
2023/04/14 00:24:56;;;;;;;4.93;2.08;;;;;;;14.93;100.00;95393.44;4966669;28;20086;-45
2023/04/14 00:27:24;;;;;;;4.25;2.15;;;;;;;13.98;100.00;95407.28;4967696;28;20078;-46
2023/04/14 00:29:54;;;;;;;5.38;1.70;;;;;;;14.28;100.00;95407.09;4964735;28;20101;-43
2023/04/14 00:32:22;;;;;;;4.27;1.83;;;;;;;14.47;100.00;95395.78;4966091;28;20088;-46
2023/04/14 00:34:50;;;;;;;3.40;1.38;;;;;;;14.33;100.00;95392.25;4964559;28;20101;-49
2023/04/14 00:37:19;;;;;;;4.50;2.38;;;;;;;14.58;100.00;95381.19;4964144;28;20536;-50
2023/04/14 00:39:47;;;;;;;3.00;1.20;;;;;;;14.45;100.00;95382.75;4962087;28;20101;-45
2023/04/14 00:42:15;;;;;;;2.25;1.20;;;;;;;14.69;100.00;95385.94;4964627;28;20097;-45
2023/04/14 00:44:46;;;;;;;5.40;1.40;;;;;;;15.24;99.44;95373.50;4964370;28;20078;-47
2023/04/14 00:47:16;;;;;;;3.63;1.40;;;;;;;14.83;96.50;95384.16;4968444;28;20085;-44
2023/04/14 00:49:44;;;;;;;0.60;0.60;;;;;;;14.87;98.68;95375.63;4960614;28;20086;-44
2023/04/14 00:52:13;;;;;;;0.90;0.73;;;;;;;14.54;100.00;95378.13;4966178;28;20097;-46
2023/04/14 00:54:41;;;;;;;5.60;0.88;;;;;;;14.37;100.00;95380.22;4964531;28;20082;-48
2023/04/14 00:57:09;;;;;;;0.80;0.50;;;;;;;14.66;100.00;95381.06;4969068;28;20085;-48
2023/04/14 00:59:38;;;;;;;0.93;0.57;;;;;;;14.46;100.00;95380.91;4968318;28;20097;-51
2023/04/14 01:02:06;;;;;;;1.92;1.08;;;;;;;14.05;100.00;95389.59;4966269;28;20118;-47
2023/04/14 01:04:36;;;;;;;0.98;0.75;;;;;;;14.62;100.00;95379.78;4965547;28;20078;-44
2023/04/14 01:07:20;;;;;;;1.67;1.13;;;;;;;14.25;100.00;95389.75;4963265;28;20077;-43
2023/04/14 01:09:49;;;;;;;1.83;0.95;;;;;;;14.46;100.00;95379.06;4965529;28;20102;-48
2023/04/14 01:12:25;;;;;;;1.50;1.05;;;;;;;14.58;100.00;95387.31;4964913;28;20109;-43
2023/04/14 01:15:03;;;;;;;4.28;1.10;;;;;;;14.68;100.00;95386.97;4962159;28;20078;-44
2023/04/14 01:17:35;;;;;;;2.22;1.33;;;;;;;14.39;100.00;95395.97;4960039;28;20078;-47
2023/04/14 01:20:13;;;;;;;1.73;1.00;;;;;;;14.24;100.00;95402.16;4967908;28;20091;-41
2023/04/14 01:22:47;;;;;;;2.60;1.25;;;;;;;14.58;100.00;95400.56;4959066;28;20089;-44
2023/04/14 01:25:41;;;;;;;1.55;1.05;;;;;;;14.87;100.00;95393.41;4965418;28;20078;-46
2023/04/14 01:28:16;;;;;;;1.27;0.85;;;;;;;14.36;100.00;95402.47;4961851;28;20078;-45
2023/04/14 01:30:59;;;;;;;2.67;1.45;;;;;;;14.69;100.00;95393.91;4967407;28;20081;-42
2023/04/14 01:33:30;;;;;;;3.13;1.60;;;;;;;14.35;100.00;95400.00;4963714;28;20083;-47
2023/04/14 01:36:01;;;;;;;2.63;1.48;;;;;;;14.73;100.00;95397.81;4964864;28;20078;-48
2023/04/14 01:38:34;;;;;;;2.00;1.13;;;;;;;14.66;100.00;95404.94;4962864;28;20074;-45
2023/04/14 01:41:06;;;;;;;5.63;1.58;;;;;;;14.49;100.00;95396.44;4963231;28;20086;-42
2023/04/14 01:43:37;;;;;;;1.85;1.30;;;;;;;14.57;100.00;95392.81;4961832;28;20534;-44
2023/04/14 01:46:07;;;;;;;2.92;1.60;;;;;;;14.34;100.00;95398.34;4963146;28;20082;-49
2023/04/14 01:48:37;;;;;;;1.93;1.10;;;;;;;14.06;100.00;95385.94;4965607;28;20447;-45
2023/04/14 01:51:07;;;;;;;3.40;1.38;;;;;;;14.21;100.00;95396.44;4963966;28;20086;-47
2023/04/14 01:53:37;;;;;;;3.60;1.92;;;;;;;14.28;100.00;95394.66;4965786;28;20086;-44
2023/04/14 01:56:08;;;;;;;3.08;1.70;;;;;;;14.66;100.00;95395.13;4965386;28;20224;-46
2023/04/14 01:58:37;;;;;;;2.28;1.27;;;;;;;14.51;100.00;95404.22;4963166;28;20093;-48
2023/04/14 02:01:06;;;;;;;7.43;2.55;;;;;;;14.53;100.00;95399.53;4965082;28;20078;-46
2023/04/14 02:03:37;;;;;;;6.35;2.53;;;;;;;14.68;100.00;95394.91;4963772;28;20082;-44
2023/04/14 02:06:06;;;;;;;;;;;;;;;14.25;100.00;95405.66;4962721;28;20526;-44
2023/04/14 02:08:36;;;;;;;3.35;1.98;;;;;;;14.27;100.00;95400.97;4961771;28;19957;-43
2023/04/14 02:11:05;;;;;;;3.42;1.88;;;;;;;14.50;100.00;95390.13;4963043;28;20090;-42
2023/04/14 02:13:34;;;;;;;4.53;1.83;;;;;;;14.76;100.00;95378.81;4962418;28;20078;-44
2023/04/14 02:16:06;;;;;;;7.63;2.80;;;;;;;14.77;100.00;95383.13;4964905;28;20062;-44
2023/04/14 02:18:37;;;;;;;4.07;2.17;;;;;;;14.59;100.00;95373.06;4964810;28;20102;-43
2023/04/14 02:21:06;;;;;;;3.63;1.92;;;;;;;14.48;100.00;95376.22;4961849;28;20553;-44
2023/04/14 02:23:34;;;;;;;2.58;1.52;;;;;;;14.41;100.00;95373.50;4966143;28;20085;-44
2023/04/14 02:26:08;;;;;;;2.53;1.60;;;;;;;14.28;100.00;95372.59;4964286;28;20086;-44
2023/04/14 02:28:41;;;;;;;2.10;1.40;;;;;;;13.85;100.00;95365.59;4965023;28;20471;-46
2023/04/14 02:31:12;;;;;;;1.75;1.30;;;;;;;14.17;100.00;95371.31;4959806;28;20070;-48
2023/04/14 02:33:43;;;;;;;2.67;1.00;;;;;;;14.09;100.00;95364.34;4964626;28;20082;-44
2023/04/14 02:36:16;;;;;;;4.57;2.05;;;;;;;14.01;100.00;95375.09;4960920;28;20085;-45
2023/04/14 02:38:46;;;;;;;1.60;1.20;;;;;;;14.64;100.00;95367.97;4963577;28;20510;-43
2023/04/14 02:41:20;;;;;;;1.35;1.17;;;;;;;14.61;100.00;95362.22;4963709;28;20078;-45
2023/04/14 02:43:51;;;;;;;1.23;0.90;;;;;;;14.37;100.00;95366.97;4960380;28;20090;-46
2023/04/14 02:46:22;;;;;;;2.53;1.08;;;;;;;14.31;100.00;95358.97;4961851;28;20079;-46
2023/04/14 02:48:52;;;;;;;1.13;0.43;;;;;;;13.81;100.00;95355.56;4961352;28;20486;-46
2023/04/14 02:51:21;;;;;;;1.05;0.93;;;;;;;13.91;100.00;95354.22;4964339;28;20086;-47
2023/04/14 02:53:50;;;;;;;1.40;0.80;;;;;;;14.28;100.00;95349.59;4963857;28;20093;-42
2023/04/14 02:56:18;;;;;;;0.60;0.60;;;;;;;14.05;100.00;95349.84;4963449;28;20090;-48
2023/04/14 02:58:47;;;;;;;1.42;0.80;;;;;;;14.44;100.00;95333.34;4963489;28;20155;-46
2023/04/14 03:01:16;;;;;;;0.75;0.60;;;;;;;14.15;100.00;95336.25;4960715;28;20155;-46
2023/04/14 03:03:44;;;;;;;0.77;0.70;;;;;;;13.92;100.00;95349.75;4959483;28;20086;-46
2023/04/14 03:06:15;;;;;;;3.13;1.02;;;;;;;14.29;100.00;95340.59;4959490;28;20578;-48
2023/04/14 03:08:44;;;;;;;3.63;1.27;;;;;;;14.71;97.75;95334.31;4964503;28;20526;-42
2023/04/14 03:11:14;;;;;;;0.85;0.68;;;;;;;14.15;100.00;95341.56;4964089;28;20090;-41
2023/04/14 03:13:43;;;;;;;1.00;0.80;;;;;;;14.39;100.00;95329.66;4962953;28;20086;-41
2023/04/14 03:16:12;;;;;;;2.47;1.20;;;;;;;14.10;100.00;95336.00;4963890;28;20090;-44
2023/04/14 03:18:40;;;;;;;3.83;0.95;;;;;;;14.45;100.00;95329.69;4963065;28;20082;-48
2023/04/14 03:21:09;;;;;;;1.67;1.10;;;;;;;14.22;100.00;95340.56;4964590;28;20082;-47
2023/04/14 03:23:39;;;;;;;1.90;1.45;;;;;;;14.11;100.00;95335.81;4964903;28;20117;-47
2023/04/14 03:26:08;;;;;;;;;;;;;;;14.72;100.00;95332.47;4964989;28;20085;-43
2023/04/14 03:28:37;;;;;;;2.47;1.67;;;;;;;13.80;100.00;95341.50;4964381;28;19977;-49
2023/04/14 03:31:07;;;;;;;3.90;1.40;;;;;;;14.26;100.00;95335.69;4962053;28;20099;-45
2023/04/14 03:33:37;;;;;;;1.58;1.15;;;;;;;14.29;100.00;95327.34;4962843;28;20094;-47
2023/04/14 03:36:07;;;;;;;3.60;1.60;;;;;;;14.29;100.00;95331.84;4962451;28;20887;-46
2023/04/14 03:38:35;;;;;;;2.03;1.10;;;;;;;14.32;100.00;95326.16;4962440;28;20432;-43
2023/04/14 03:41:08;;;;;;;2.47;1.48;;;;;;;14.09;100.00;95326.41;4966750;28;20090;-48
2023/04/14 03:43:37;;;;;;;2.08;1.42;;;;;;;14.27;100.00;95321.41;4963997;28;20091;-47
2023/04/14 03:46:06;;;;;;;3.13;1.83;;;;;;;14.36;100.00;95324.75;4963307;28;20086;-46
2023/04/14 03:48:41;;;;;;;3.75;2.13;;;;;;;14.23;100.00;95330.78;4967070;28;20486;-49
2023/04/14 03:51:12;;;;;;;2.40;1.35;;;;;;;14.20;100.00;95331.97;4966139;28;20082;-46
2023/04/14 03:53:40;;;;;;;2.63;1.70;;;;;;;14.18;100.00;95333.22;4963594;28;20089;-42
2023/04/14 03:56:12;;;;;;;3.53;2.10;;;;;;;14.54;100.00;95338.31;4964323;28;20477;-45
2023/04/14 03:58:41;;;;;;;7.50;2.85;;;;;;;15.11;100.00;95338.97;4967021;28;20077;-41
2023/04/14 04:01:09;;;;;;;3.22;2.42;;;;;;;15.10;100.00;95347.91;4967124;28;20451;-45
2023/04/14 04:03:39;;;;;;;5.50;3.22;;;;;;;15.06;100.00;95352.81;4967362;28;20082;-45
2023/04/14 04:06:08;;;;;;;5.45;2.63;;;;;;;15.23;100.00;95355.13;4968169;28;20090;-46
2023/04/14 04:08:37;;;;;;;3.10;1.90;;;;;;;15.22;100.00;95358.78;4965705;28;20097;-46
2023/04/14 04:11:06;;;;;;;5.18;2.50;;;;;;;15.60;100.00;95354.56;4967164;28;20110;-46
2023/04/14 04:13:36;;;;;;;4.30;3.00;;;;;;;15.27;100.00;95354.50;4966916;28;20089;-42
2023/04/14 04:16:07;;;;;;;4.82;3.10;;;;;;;15.74;97.87;95355.44;4967184;28;20093;-44
2023/04/14 04:18:38;;;;;;;4.18;2.90;;;;;;;15.86;98.90;95345.00;4966389;28;20089;-43
2023/04/14 04:21:06;;;;;;;;;;;;;;;15.52;100.00;95345.97;4966038;28;20086;-44
2023/04/14 04:23:34;;;;;;;6.95;3.58;;;;;;;15.47;100.00;95345.75;4970874;28;19929;-43
2023/04/14 04:26:03;;;;;;;6.47;3.60;;;;;;;15.60;100.00;95343.94;4970558;28;20089;-44
2023/04/14 04:28:31;;;;;;;6.38;3.83;;;;;;;15.61;99.57;95339.44;4970349;28;20090;-45
2023/04/14 04:31:05;;;;;;;7.10;3.83;;;;;;;15.98;99.14;95345.22;4970870;28;20059;-43
2023/04/14 04:33:34;;;;;;;12.10;5.00;;;;;;;15.34;100.00;95350.03;4970907;28;20532;-43
2023/04/14 04:36:04;;;;;;;5.10;2.92;;;;;;;16.07;98.07;95346.63;4970212;28;20082;-42
2023/04/14 04:38:32;;;;;;;8.60;4.25;;;;;;;16.30;91.34;95346.19;4970375;28;20105;-45
2023/04/14 04:41:00;;;;;;;9.45;6.15;;;;;;;15.79;97.51;95349.50;4969480;28;20082;-43
2023/04/14 04:43:29;;;;;;;9.93;5.80;;;;;;;16.11;96.44;95350.53;4969978;28;20093;-45
2023/04/14 04:46:14;;;;;;;7.65;4.88;;;;;;;16.55;91.49;95351.66;4968862;28;20517;-42
2023/04/14 04:48:42;;;;;;;8.45;5.50;;;;;;;16.29;93.46;95361.31;4968840;28;20070;-46
2023/04/14 04:51:10;;;;;;;10.98;5.38;;;;;;;16.06;96.73;95355.63;4970339;28;21052;-43
2023/04/14 04:53:39;;;;;;;6.68;3.10;;;;;;;16.39;93.83;95358.25;4969928;28;20091;-41
2023/04/14 04:56:08;;;;;;;10.75;7.07;;;;;;;15.94;97.36;95362.59;4970178;28;20086;-44
2023/04/14 04:58:36;;;;;;;7.50;4.88;;;;;;;16.12;100.00;95368.91;4970459;28;20094;-44
2023/04/14 05:01:09;;;;;;;13.52;6.35;;;;;;;16.15;100.00;95373.00;4962175;28;20078;-44
2023/04/14 05:03:37;;;;;;;8.43;6.13;;;;;;;16.36;94.01;95364.78;4969606;28;20086;-47
2023/04/14 05:06:06;;;;;;;10.85;6.32;;;;;;;16.98;88.83;95367.94;4962335;28;20510;-47
2023/04/14 05:08:34;;;;;;;10.82;7.00;;;;;;;16.52;92.37;95376.03;4961760;28;20085;-46
2023/04/14 05:11:03;;;;;;;12.18;7.18;;;;;;;16.09;97.58;95379.97;4968682;28;20514;-44
2023/04/14 05:13:31;;;;;;;9.23;4.68;;;;;;;16.00;98.69;95385.69;4969508;28;20538;-44
2023/04/14 05:16:04;;;;;;;10.20;4.18;;;;;;;15.81;100.00;95385.50;4968098;28;20081;-47
2023/04/14 05:18:35;;;;;;;10.55;5.68;;;;;;;16.40;95.92;95388.31;4969645;28;20105;-44
2023/04/14 05:21:03;;;;;;;8.88;5.47;;;;;;;15.78;100.00;95388.53;4961056;28;20121;-45
2023/04/14 05:23:33;;;;;;;8.43;5.32;;;;;;;15.75;97.04;95393.44;4953119;28;20133;-50
2023/04/14 05:26:01;;;;;;;6.97;4.72;;;;;;;16.27;98.16;95387.31;4959854;28;20530;-47
2023/04/14 05:28:49;;;;;;;11.30;5.90;;;;;;;16.13;99.99;95393.66;4958008;28;20089;-45
2023/04/14 05:31:18;;;;;;;9.88;5.80;;;;;;;16.17;95.65;95394.06;4958866;28;20094;-50
2023/04/14 05:33:48;;;;;;;9.60;3.83;;;;;;;15.98;100.00;95403.72;4959339;28;20086;-44
2023/04/14 05:36:16;;;;;;;5.60;2.92;;;;;;;16.54;98.26;95392.59;4956496;28;20089;-43
2023/04/14 05:38:45;;;;;;;8.13;4.60;;;;;;;16.17;100.00;95392.22;4957724;28;20093;-45
2023/04/14 05:41:13;;;;;;;7.25;4.63;;;;;;;15.96;100.00;95381.81;4970165;28;20066;-47
2023/04/14 05:43:41;;;;;;;9.68;4.75;;;;;;;15.55;100.00;95390.72;4970020;28;20143;-46
2023/04/14 05:46:10;;;;;;;3.70;2.97;;;;;;;15.40;100.00;95381.09;4962293;28;20086;-48
2023/04/14 05:48:38;;;;;;;10.45;4.65;;;;;;;15.52;100.00;95389.31;4964087;28;20522;-43
2023/04/14 05:51:08;;;;;;;8.15;5.13;;;;;;;15.87;100.00;95389.19;4961994;28;20117;-42
2023/04/14 05:53:36;;;;;;;8.13;5.03;;;;;;;16.64;99.28;95371.69;4954762;28;20093;-44
2023/04/14 05:56:05;;;;;;;7.70;4.57;;;;;;;15.66;100.00;95384.88;4959622;28;20078;-43
2023/04/14 05:58:33;;;;;;;5.22;3.50;;;;;;;15.68;100.00;95385.47;4958785;28;20093;-45
2023/04/14 06:01:02;;;;;;;8.40;3.40;;;;;;;15.39;100.00;95386.63;4957157;28;20782;-44
2023/04/14 06:03:31;;;;;;;6.78;3.97;;;;;;;15.20;100.00;95390.84;4964329;28;20125;-46
2023/04/14 06:06:00;;;;;;;7.93;4.45;;;;;;;15.19;100.00;95390.03;4966115;28;20083;-47
2023/04/14 06:08:30;;;;;;;7.25;4.03;;;;;;;15.85;100.00;95389.38;4967962;28;20074;-42
2023/04/14 06:10:58;;;;;;;6.70;4.20;;;;;;;16.03;100.00;95386.09;4965532;28;20085;-48
2023/04/14 06:13:26;;;;;;;7.97;4.85;;;;;;;16.07;100.00;95392.66;4969240;28;20086;-43
2023/04/14 06:15:59;;;;;;;8.77;4.00;;;;;;;15.62;100.00;95400.38;4971304;28;20487;-44
2023/04/14 06:18:27;;;;;;;5.40;3.40;;;;;;;15.19;100.00;95391.88;4970735;28;20087;-41
2023/04/14 06:20:56;;;;;;;7.47;4.10;;;;;;;15.26;100.00;95395.38;4969412;28;20090;-47
2023/04/14 06:23:25;;;;;;;6.97;3.30;;;;;;;14.96;100.00;95390.34;4952419;28;20074;-42
2023/04/14 06:25:56;;;;;;;5.25;3.05;;;;;;;14.85;100.00;95395.41;4969173;28;20082;-42
2023/04/14 06:28:25;;;;;;;5.22;3.78;;;;;;;15.03;100.00;95408.97;4962161;28;20077;-47
2023/04/14 06:30:53;;;;;;;6.63;4.00;;;;;;;14.96;100.00;95400.16;4969553;28;20087;-50
2023/04/14 06:33:22;;;;;;;5.43;2.92;;;;;;;15.23;100.00;95405.56;4958172;28;20086;-51
2023/04/14 06:35:50;;;;;;;8.15;4.18;;;;;;;15.24;100.00;95407.19;4965721;28;20538;-46
2023/04/14 06:38:19;;;;;;;8.98;5.55;;;;;;;16.12;100.00;95400.84;4974752;28;20467;-47
2023/04/14 06:40:47;;;;;;;7.65;4.90;;;;;;;15.65;100.00;95413.22;4969270;28;20090;-44
2023/04/14 06:43:20;;;;;;;5.82;3.38;;;;;;;15.74;100.00;95405.13;4969251;28;20082;-46
2023/04/14 06:45:49;;;;;;;5.22;2.80;;;;;;;16.06;100.00;95412.28;4968270;28;20478;-42
2023/04/14 06:48:18;;;;;;;11.30;6.50;;;;;;;16.12;100.00;95397.34;4969047;28;20526;-44
2023/04/14 06:50:53;;;;;;;7.93;4.50;;;;;;;15.53;100.00;95412.19;4969304;28;20086;-44
2023/04/14 06:53:21;;;;;;;6.88;3.83;;;;;;;15.93;100.00;95401.63;4969080;28;20093;-43
2023/04/14 06:55:57;;;;;;;6.30;3.65;;;;;;;16.06;100.00;95393.66;4969502;28;20097;-43
2023/04/14 06:58:28;;;;;;;7.47;4.80;;;;;;;15.25;100.00;95390.28;4968749;28;20090;-51
2023/04/14 07:00:57;;;;;;;9.48;4.60;;;;;;;15.62;100.00;95396.88;4968744;28;20523;-44
2023/04/14 07:03:26;;;;;;;5.68;3.38;;;;;;;16.29;99.14;95382.63;4968388;28;20121;-51
2023/04/14 07:05:54;;;;;;;7.22;3.42;;;;;;;16.37;98.07;95378.91;4973022;28;20085;-52
2023/04/14 07:08:22;;;;;;;11.70;6.35;;;;;;;16.15;99.47;95381.00;4968738;28;20082;-47
2023/04/14 07:10:59;;;;;;;10.63;6.07;;;;;;;16.70;95.08;95381.50;4968959;28;20097;-52
2023/04/14 07:13:29;;;;;;;5.25;3.50;;;;;;;16.94;93.41;95385.34;4966991;28;20170;-49
2023/04/14 07:15:57;;;;;;;11.02;5.82;;;;;;;16.32;93.51;95378.72;4972353;28;20531;-48
2023/04/14 07:18:26;;;;;;;8.07;4.65;;;;;;;17.03;87.70;95384.09;4972840;28;20515;-53
2023/04/14 07:20:55;;;;;;;6.35;3.72;;;;;;;16.97;88.39;95386.78;4971338;28;20089;-48
2023/04/14 07:23:23;;;;;;;4.65;3.03;;;;;;;17.02;85.49;95392.28;4971289;28;20078;-51
2023/04/14 07:25:52;;;;;;;8.40;4.88;;;;;;;16.98;88.94;95394.56;4972387;28;20082;-51
2023/04/14 07:28:20;;;;;;;6.35;4.05;;;;;;;16.94;89.81;95397.84;4972685;28;20159;-49
2023/04/14 07:30:51;;;;;;;6.45;4.55;;;;;;;16.94;87.76;95395.19;4968917;28;20086;-56
2023/04/14 07:33:21;;;;;;;;;;;;;;;17.05;86.91;95394.53;4973487;28;20086;-51
2023/04/14 07:35:49;;;;;;;7.53;4.47;;;;;;;17.06;85.13;95393.50;4972719;28;19964;-48
2023/04/14 07:38:29;;;;;;;4.28;2.58;;;;;;;17.00;85.98;95386.38;4969864;28;20062;-51
2023/04/14 07:40:58;;;;;;;10.00;4.30;;;;;;;17.22;84.65;95387.69;4972395;28;20463;-52
2023/04/14 07:43:26;;;;;;;7.57;4.95;;;;;;;16.85;87.66;95394.59;4972728;28;20082;-47
2023/04/14 07:45:56;;;;;;;8.25;4.90;;;;;;;16.95;87.99;95391.50;4972525;28;20070;-48
2023/04/14 07:48:24;;;;;;;7.28;4.85;;;;;;;16.79;87.70;95387.44;4971454;28;20082;-50
2023/04/14 07:50:53;;;;;;;6.63;4.25;;;;;;;16.91;89.39;95393.75;4972240;28;20086;-48
2023/04/14 07:53:22;;;;;;;7.28;5.13;;;;;;;16.77;91.86;95398.31;4971897;28;20086;-49
2023/04/14 07:55:50;;;;;;;6.50;3.72;;;;;;;16.58;95.62;95389.31;4972164;28;20082;-47
2023/04/14 07:58:18;;;;;;;7.70;4.53;;;;;;;16.87;94.11;95397.06;4971597;28;20086;-51
2023/04/14 08:00:47;;;;;;;7.00;3.53;;;;;;;16.89;94.53;95395.81;4971875;28;20090;-47
2023/04/14 08:03:16;;;;;;;7.43;3.53;;;;;;;16.31;98.25;95395.69;4971585;28;20089;-47
2023/04/14 08:05:45;;;;;;;7.45;2.78;;;;;;;16.50;97.18;95394.84;4972225;28;20479;-49
2023/04/14 08:08:14;;;;;;;7.70;4.75;;;;;;;16.97;96.11;95392.13;4971039;28;20083;-45
2023/04/14 08:10:42;;;;;;;8.40;4.00;;;;;;;16.60;97.72;95397.91;4970082;28;20089;-50
2023/04/14 08:13:10;;;;;;;5.70;3.28;;;;;;;16.57;93.47;95408.16;4970547;28;20090;-47
2023/04/14 08:15:39;;;;;;;4.80;3.47;;;;;;;16.75;97.53;95407.53;4970055;28;20085;-48
2023/04/14 08:18:07;;;;;;;3.78;2.70;;;;;;;16.52;99.79;95421.28;4971411;28;20159;-45
2023/04/14 08:20:37;;;;;;;3.72;2.53;;;;;;;16.64;97.06;95432.09;4971931;28;20794;-47
2023/04/14 08:23:05;;;;;;;5.45;3.42;;;;;;;16.57;99.12;95429.44;4971601;28;20078;-49
2023/04/14 08:25:33;;;;;;;4.22;2.63;;;;;;;16.58;98.42;95428.41;4967899;28;20063;-42
2023/04/14 08:28:02;;;;;;;4.93;2.78;;;;;;;16.51;100.00;95425.75;4970830;28;20117;-44
2023/04/14 08:30:31;;;;;;;2.90;1.52;;;;;;;16.50;99.17;95418.00;4971781;28;20085;-45
2023/04/14 08:32:59;;;;;;;1.63;1.40;;;;;;;16.26;100.00;95420.25;4971363;28;20752;-45
2023/04/14 08:35:27;;;;;;;2.97;2.13;;;;;;;16.45;100.00;95413.31;4971768;28;20078;-48
2023/04/14 08:38:08;;;;;;;5.93;2.83;;;;;;;16.42;100.00;95419.03;4969993;28;20086;-49
2023/04/14 08:40:39;;;;;;;4.28;2.95;;;;;;;17.27;94.33;95424.34;4971500;28;20051;-45
2023/04/14 08:43:07;;;;;;;2.42;1.75;;;;;;;16.74;97.03;95421.84;4954097;28;20450;-44
2023/04/14 08:45:36;;;;;;;2.60;1.58;;;;;;;16.64;97.91;95427.59;4971476;28;20069;-46
2023/04/14 08:48:05;;;;;;;2.97;2.17;;;;;;;16.49;100.00;95432.34;4971320;28;20074;-48
2023/04/14 08:50:37;;;;;;;4.50;1.67;;;;;;;16.65;99.62;95431.88;4971664;28;20093;-41
2023/04/14 08:53:09;;;;;;;2.28;1.58;;;;;;;16.48;100.00;95439.50;4970904;28;20074;-45
2023/04/14 08:55:40;;;;;;;3.78;2.70;;;;;;;17.03;100.00;95436.53;4971670;28;20086;-43
2023/04/14 08:58:09;;;;;;;;;;;;;;;16.49;100.00;95440.31;4971304;28;20470;-44
2023/04/14 09:00:38;;;;;;;2.10;1.25;;;;;;;16.10;100.00;95434.81;4971283;28;19976;-44
2023/04/14 09:03:07;;;;;;;2.53;1.30;;;;;;;15.99;100.00;95439.91;4955182;28;20530;-45
2023/04/14 09:05:37;;;;;;;2.45;1.70;;;;;;;16.34;100.00;95432.53;4973609;28;20081;-44
2023/04/14 09:08:05;;;;;;;4.43;1.95;;;;;;;16.82;100.00;95419.78;4973819;28;20510;-45
2023/04/14 09:10:35;;;;;;;5.70;2.00;;;;;;;16.64;100.00;95416.94;4968030;28;20079;-45
2023/04/14 09:13:05;;;;;;;2.25;1.60;;;;;;;16.36;100.00;95412.69;4971216;28;20071;-45
2023/04/14 09:15:33;;;;;;;1.80;1.37;;;;;;;16.54;100.00;95400.59;4971080;28;20653;-45
2023/04/14 09:18:02;;;;;;;3.45;1.75;;;;;;;16.34;100.00;95385.50;4970631;28;20086;-52
2023/04/14 09:20:30;;;;;;;3.47;2.15;;;;;;;16.96;100.00;95412.56;4970473;28;20078;-45
2023/04/14 09:23:07;;;;;;;6.05;2.30;;;;;;;17.27;100.00;95427.84;4970199;28;20090;-48
2023/04/14 09:25:38;;;;;;;2.67;1.53;;;;;;;16.69;100.00;95427.81;4970366;28;20086;-43
2023/04/14 09:28:06;;;;;;;3.95;1.88;;;;;;;16.17;100.00;95412.69;4969623;28;20100;-47
2023/04/14 09:30:35;;;;;;;4.10;1.77;;;;;;;16.93;100.00;95405.03;4970575;28;20089;-45
2023/04/14 09:33:06;;;;;;;3.55;1.80;;;;;;;16.80;100.00;95405.88;4968782;28;20078;-46
2023/04/14 09:35:43;;;;;;;4.28;2.15;;;;;;;17.39;100.00;95398.69;4959205;28;20051;-42
2023/04/14 09:38:12;;;;;;;2.67;1.70;;;;;;;17.53;100.00;95394.09;4970624;28;20082;-47
2023/04/14 09:40:43;;;;;;;1.95;1.73;;;;;;;17.64;100.00;95393.41;4970261;28;20087;-44
2023/04/14 09:43:25;;;;;;;2.33;1.30;;;;;;;17.11;100.00;95399.03;4970278;28;20078;-47
2023/04/14 09:45:55;;;;;;;3.17;1.75;;;;;;;17.65;98.63;95404.88;4973131;28;20498;-42
2023/04/14 09:48:24;;;;;;;1.95;1.30;;;;;;;18.16;94.53;95402.09;4967684;28;20463;-45
2023/04/14 09:50:57;;;;;;;5.18;2.30;;;;;;;18.26;85.94;95405.06;4970111;28;20097;-43
2023/04/14 09:53:27;;;;;;;3.65;1.90;;;;;;;18.71;87.28;95409.38;4968836;28;20090;-45
2023/04/14 09:55:58;;;;;;;2.00;1.30;;;;;;;17.72;92.91;95434.97;4970492;28;20408;-50
2023/04/14 09:58:29;;;;;;;3.60;1.73;;;;;;;17.35;89.54;95434.78;4969666;28;20512;-43
2023/04/14 10:00:59;;;;;;;3.97;1.63;;;;;;;17.74;93.62;95432.94;4969491;28;20531;-49
2023/04/14 10:03:37;;;;;;;3.63;1.67;;;;;;;18.17;91.23;95427.75;4963874;28;20071;-47
2023/04/14 10:06:09;;;;;;;2.67;1.90;;;;;;;17.93;88.00;95432.03;4964502;28;20087;-52
2023/04/14 10:08:39;;;;;;;4.30;2.00;;;;;;;17.32;90.81;95428.03;4969646;28;20082;-51
2023/04/14 10:11:16;;;;;;;2.58;1.60;;;;;;;17.00;95.04;95426.31;4968647;28;20078;-50
2023/04/14 10:13:45;;;;;;;4.90;2.63;;;;;;;17.54;93.26;95423.19;4970420;28;20462;-41
2023/04/14 10:16:14;;;;;;;5.25;2.13;;;;;;;17.44;92.98;95414.03;4969815;28;20097;-46
2023/04/14 10:18:43;;;;;;;3.38;2.22;;;;;;;17.24;96.47;95419.44;4968484;28;20498;-44
2023/04/14 10:21:11;;;;;;;2.25;1.55;;;;;;;17.08;96.03;95410.09;4969450;28;20086;-44
2023/04/14 10:23:40;;;;;;;1.85;1.40;;;;;;;17.08;92.45;95410.91;4968488;28;20075;-46
2023/04/14 10:26:10;;;;;;;1.63;1.20;;;;;;;17.13;97.22;95407.59;4968511;28;20089;-48
2023/04/14 10:28:43;;;;;;;3.83;1.70;;;;;;;17.23;94.09;95426.63;4969439;28;20078;-44
2023/04/14 10:31:14;;;;;;;2.67;1.65;;;;;;;17.30;89.42;95422.06;4969540;28;20684;-46
2023/04/14 10:33:43;;;;;;;3.05;1.83;;;;;;;17.71;86.75;95414.69;4970647;28;20078;-47
2023/04/14 10:36:12;;;;;;;2.75;1.50;;;;;;;17.49;92.92;95415.03;4970129;28;20078;-47
2023/04/14 10:38:42;;;;;;;1.67;1.25;;;;;;;17.53;87.53;95410.09;4970073;28;20082;-48
2023/04/14 10:41:11;;;;;;;4.10;1.20;;;;;;;17.83;85.35;95410.34;4970349;28;20694;-43
2023/04/14 10:43:41;;;;;;;3.50;1.80;;;;;;;17.94;83.22;95403.50;4968834;28;20479;-48
2023/04/14 10:46:09;;;;;;;4.20;2.07;;;;;;;18.02;82.58;95403.22;4969266;28;20086;-50
2023/04/14 10:48:40;;;;;;;2.47;1.58;;;;;;;17.68;83.97;95394.59;4966644;28;20082;-44
2023/04/14 10:51:10;;;;;;;3.33;1.60;;;;;;;18.39;83.25;95376.66;4970739;28;20073;-44
2023/04/14 10:53:43;;;;;;;2.40;1.50;;;;;;;17.95;76.07;95395.28;4973529;28;20527;-50
2023/04/14 10:56:12;;;;;;;4.45;2.05;;;;;;;19.53;74.16;95383.16;4973101;28;20093;-44
2023/04/14 10:58:44;;;;;;;3.05;1.60;;;;;;;19.16;77.46;95379.72;4975735;28;20090;-46
2023/04/14 11:01:25;;;;;;;6.28;2.53;;;;;;;18.86;77.29;95380.50;4971499;28;20085;-43
2023/04/14 11:03:54;;;;;;;3.13;1.55;;;;;;;18.46;76.05;95380.06;4969164;28;20093;-45
2023/04/14 11:06:48;;;;;;;2.50;2.00;;;;;;;18.43;76.06;95367.97;4969580;28;20083;-45
2023/04/14 11:09:24;;;;;;;2.70;1.75;;;;;;;19.31;72.94;95350.75;4972415;28;20089;-45
2023/04/14 11:11:54;;;;;;;2.25;1.67;;;;;;;18.55;70.84;95353.88;4972680;28;20085;-50
2023/04/14 11:14:27;;;;;;;2.05;1.25;;;;;;;18.62;67.83;95336.78;4972522;28;20561;-47
2023/04/14 11:17:00;;;;;;;3.17;1.23;;;;;;;19.26;65.33;95329.22;4972441;28;20077;-46
2023/04/14 11:19:32;;;;;;;2.88;1.70;;;;;;;19.90;59.98;95329.56;4970596;28;20081;-47
2023/04/14 11:22:01;;;;;;;2.88;1.65;;;;;;;19.94;60.24;95330.72;4972430;28;20090;-50
2023/04/14 11:24:29;;;;;;;2.60;1.25;;;;;;;19.26;65.05;95326.56;4972683;28;20071;-45
2023/04/14 11:26:58;;;;;;;2.80;1.25;;;;;;;18.68;63.03;95317.16;4972861;28;20086;-46
2023/04/14 11:29:28;;;;;;;2.28;1.02;;;;;;;18.33;67.41;95311.59;4971733;28;20097;-53
2023/04/14 11:32:04;;;;;;;1.60;0.98;;;;;;;18.80;66.81;95314.63;4971105;28;20551;-45
2023/04/14 11:34:33;;;;;;;2.42;1.17;;;;;;;19.08;69.34;95329.28;4971340;28;20079;-45
2023/04/14 11:37:03;;;;;;;1.60;1.27;;;;;;;19.69;59.85;95325.56;4968688;28;20066;-45
2023/04/14 11:39:31;;;;;;;2.25;1.38;;;;;;;19.86;54.56;95320.38;4972044;28;20742;-50
2023/04/14 11:42:00;;;;;;;1.73;1.25;;;;;;;19.44;57.41;95326.53;4972219;28;20086;-47